world map with KIM marked

KIM - Airport

This information may not be accurate or current and is not valid for navigation or flight planning. No warranty of fitness for any purpose is made or implied.

flag of Northern Capeflag of South Africa

Donate via PayPal

Additional information is available on the NEW Great Circle Mapper

Location
City:  Kimberley, Northern Cape, South Africa
Name:Kimberley Airport
ICAO / IATA:FAKM / KIM

Details
Type:Airport (Aerodrome, Airfield)
Use:Public/Civil
Latitude:28°48'10"S (-28.802833)
Longitude:24°45'55"E (24.765167)
Datum:WGS 1984
Elevation:3950 ft (1204 m)
Runways:2
Longest:9843 × 150 ft (3000 × 45.5 m)

Time
Timezone:UTC+2 (DST+4)
Local Time:

Weather
METAR:FAKM  041400Z 22006KT CAVOK 30/09 Q1017
TAF:FAKM  (expired)

Related Locations
Nearby:
Farthest:HPV: 11909 mi / 19166 km
Hanalei [Princeville Airport], Kauai, HI, US

Find:

   beyond  
but within

Other Information
Maps:
Sources:

  


 


Great Circle Mapper   Great Circle Mapper
Great Circle Mapper FAQ   Great Circle Mapper FAQ
  Karl's Home Page
KLSē   KLSē Home
   GC on Facebook
Airlines of the World   Airlines of the World
Donate via PayPal


Copyright © 2004-2019, Karl L. Swartz. All rights reserved.
All trademarks mentioned herein belong to their respective owners.

Please see credits for attribution and copyright information.

Karl Swartz <karl@kls2.com>
  Powered by FreeBSD
Valid HTML 4.01!
Labeled with ICRA
hCard Microformat
Geo Microformat